Time;durP1;ratioP1;P1;durP2;ratioP2;P2;SDS_P1;SDS_P2;PMS_P1;PMS_P2;Temp;Humidity;BMP_temperature;BMP_pressure;BME280_temperature;BME280_humidity;BME280_pressure;Samples;Min_cycle;Max_cycle;Signal;HPM_P1;HPM_P2
2021/12/12 00:04:47;;;;;;;18.50;9.85;;;;;;;2.46;86.43;101992.09;10522150;28;20054;-79
2021/12/12 00:09:53;;;;;;;20.95;9.77;;;;;;;2.43;86.19;101981.47;10521050;28;20024;-80
2021/12/12 00:14:53;;;;;;;17.20;10.00;;;;;;;2.43;86.97;101977.97;10505050;28;20456;-79
2021/12/12 00:19:54;;;;;;;22.02;12.10;;;;;;;2.48;86.69;101980.25;10521248;28;20032;-81
2021/12/12 00:24:55;;;;;;;23.85;10.38;;;;;;;2.47;86.93;101972.34;10515666;28;20036;-80
2021/12/12 00:30:03;;;;;;;38.03;12.45;;;;;;;2.66;86.09;101976.72;10503317;28;20023;-81
2021/12/12 00:35:05;;;;;;;20.30;10.40;;;;;;;2.66;86.18;101979.31;10522055;28;20466;-81
2021/12/12 00:40:16;;;;;;;30.52;14.05;;;;;;;2.64;86.10;101967.13;10518129;28;20036;-81
2021/12/12 00:45:17;;;;;;;21.67;11.07;;;;;;;2.62;86.29;101973.84;10471820;28;20522;-80
2021/12/12 00:50:28;;;;;;;22.35;9.48;;;;;;;2.67;86.29;101965.63;10533847;28;20119;-81
2021/12/12 00:55:37;;;;;;;36.67;14.90;;;;;;;2.62;86.27;101955.75;10518980;28;20028;-81
2021/12/12 01:00:42;;;;;;;41.47;10.35;;;;;;;2.69;86.11;101957.25;10503722;28;20480;-81
2021/12/12 01:05:43;;;;;;;41.03;11.95;;;;;;;2.78;85.34;101946.88;10504061;28;20383;-80
2021/12/12 01:10:56;;;;;;;17.73;10.00;;;;;;;2.86;85.28;101945.03;10519061;28;20039;-82
2021/12/12 01:16:06;;;;;;;19.08;10.15;;;;;;;2.82;85.70;101937.75;10502808;28;20066;-81
2021/12/12 01:21:13;;;;;;;21.45;11.23;;;;;;;2.88;84.99;101935.75;10502913;28;20024;-80
2021/12/12 01:26:14;;;;;;;21.38;11.73;;;;;;;2.88;85.61;101921.13;10499926;28;20043;-80
2021/12/12 01:31:16;;;;;;;21.48;9.38;;;;;;;2.92;84.92;101927.53;10488902;28;20028;-81
2021/12/12 01:36:26;;;;;;;25.60;8.73;;;;;;;2.98;85.38;101922.94;10502689;28;20116;-80
2021/12/12 01:41:33;;;;;;;22.05;10.25;;;;;;;3.04;84.74;101936.47;10501762;28;20439;-81
2021/12/12 01:46:36;;;;;;;15.75;8.82;;;;;;;3.13;84.63;101931.22;10486296;28;20467;-80
2021/12/12 01:51:38;;;;;;;23.50;11.15;;;;;;;3.22;84.37;101919.16;10479161;28;20395;-81
2021/12/12 01:56:42;;;;;;;19.15;10.57;;;;;;;3.29;84.10;101920.66;10493730;28;20123;-81
2021/12/12 02:01:52;;;;;;;15.82;9.07;;;;;;;3.27;84.88;101927.38;10509869;28;20028;-81
2021/12/12 02:06:54;;;;;;;23.38;9.45;;;;;;;3.29;84.91;101919.75;10492903;28;20503;-81
2021/12/12 02:11:57;;;;;;;18.83;9.07;;;;;;;3.29;85.23;101918.09;10513047;28;20039;-81
2021/12/12 02:17:01;;;;;;;22.00;9.23;;;;;;;3.30;84.78;101914.72;10517468;28;20494;-80
2021/12/12 02:22:05;;;;;;;21.17;8.15;;;;;;;3.25;85.01;101922.81;10508320;28;20035;-80
2021/12/12 02:37:46;;;;;;;24.55;9.43;;;;;;;3.12;86.75;101907.81;10513300;28;20454;-81
2021/12/12 02:42:46;;;;;;;17.90;8.30;;;;;;;3.07;87.21;101909.97;10523904;28;20115;-82
2021/12/12 02:47:54;;;;;;;20.77;9.27;;;;;;;3.09;87.42;101903.25;10527238;28;20032;-81
2021/12/12 02:53:01;;;;;;;24.83;12.88;;;;;;;3.10;87.68;101897.31;10508759;28;20393;-82
2021/12/12 02:58:03;;;;;;;27.40;11.82;;;;;;;3.07;88.07;101908.31;10489392;28;20122;-83
2021/12/12 03:03:04;;;;;;;19.27;9.13;;;;;;;3.01;88.16;101909.38;10506653;28;20036;-83
2021/12/12 03:08:04;;;;;;;28.13;12.32;;;;;;;3.01;88.58;101917.13;10490215;28;20028;-82
2021/12/12 03:13:05;;;;;;;23.90;12.43;;;;;;;3.05;88.90;101915.00;10506975;28;20019;-83
2021/12/12 03:18:10;;;;;;;19.40;9.43;;;;;;;3.03;88.72;101902.66;10506597;28;20032;-83
2021/12/12 03:23:17;;;;;;;25.77;11.18;;;;;;;3.04;89.04;101901.91;10474249;28;20043;-83
2021/12/12 03:28:19;;;;;;;23.77;9.95;;;;;;;3.05;89.16;101890.78;10489489;28;20475;-84
2021/12/12 03:33:20;;;;;;;20.90;9.48;;;;;;;3.08;89.87;101891.09;10522367;28;20032;-83
2021/12/12 03:38:21;;;;;;;22.30;10.32;;;;;;;3.10;89.49;101878.31;10490499;28;20081;-83
2021/12/12 03:43:21;;;;;;;27.98;12.70;;;;;;;3.13;90.02;101873.44;10505577;28;20044;-82
2021/12/12 03:48:25;;;;;;;17.40;10.18;;;;;;;3.17;89.51;101878.13;10506856;28;20032;-83
2021/12/12 03:53:26;;;;;;;18.90;8.55;;;;;;;3.11;89.60;101881.03;10474576;28;20498;-83
2021/12/12 03:58:27;;;;;;;19.50;10.02;;;;;;;3.16;89.81;101868.53;10505196;28;20040;-82
2021/12/12 04:03:27;;;;;;;26.15;12.18;;;;;;;3.19;90.24;101859.38;10540513;28;20060;-82
2021/12/12 04:08:31;;;;;;;19.55;10.45;;;;;;;3.23;90.09;101864.06;10478986;28;20498;-82
2021/12/12 04:13:38;;;;;;;29.73;11.60;;;;;;;3.17;90.01;101850.56;10505591;28;20407;-82
2021/12/12 04:18:38;;;;;;;17.33;10.15;;;;;;;3.23;90.44;101851.13;10538699;28;20031;-82
2021/12/12 04:23:39;;;;;;;32.78;10.30;;;;;;;3.23;90.36;101871.81;10503956;28;20058;-83
2021/12/12 04:28:40;;;;;;;15.93;9.18;;;;;;;3.32;90.84;101855.34;10520496;28;20032;-82
2021/12/12 04:33:40;;;;;;;18.13;9.60;;;;;;;3.33;90.57;101857.16;10487369;28;20034;-82
2021/12/12 04:38:41;;;;;;;29.80;12.13;;;;;;;3.32;90.82;101855.34;10519838;28;20493;-83
2021/12/12 04:43:41;;;;;;;21.58;9.98;;;;;;;3.35;91.50;101868.56;10496243;28;20076;-83
2021/12/12 04:54:42;;;;;;;26.30;11.63;;;;;;;3.43;91.37;101869.28;10488086;28;20040;-83
2021/12/12 05:00:02;;;;;;;24.77;12.95;;;;;;;3.41;91.75;101873.41;10481545;28;20025;-82
2021/12/12 05:05:13;;;;;;;30.48;10.65;;;;;;;3.45;91.79;101872.94;10494485;28;20093;-82
2021/12/12 05:10:27;;;;;;;29.48;11.27;;;;;;;3.48;91.69;101866.34;10452638;28;20041;-82
2021/12/12 05:15:36;;;;;;;19.67;12.50;;;;;;;3.52;92.42;101855.50;10463407;28;20451;-82
2021/12/12 05:20:40;;;;;;;19.20;10.45;;;;;;;3.58;91.89;101865.53;10477518;28;20029;-82
2021/12/12 05:25:58;;;;;;;21.40;11.85;;;;;;;3.56;92.24;101869.66;10478275;28;20038;-83
2021/12/12 05:31:00;;;;;;;29.92;12.02;;;;;;;3.59;92.28;101869.00;10460258;28;20077;-82
2021/12/12 05:36:02;;;;;;;;;;;;;;;3.60;92.60;101870.81;10453833;28;20509;-80
2021/12/12 05:41:02;;;;;;;23.52;12.68;;;;;;;3.66;92.16;101866.22;10490045;28;19958;-84
2021/12/12 05:46:03;;;;;;;20.65;11.70;;;;;;;3.72;92.56;101859.00;10495060;28;20368;-80
2021/12/12 05:51:04;;;;;;;22.25;10.13;;;;;;;3.75;92.48;101872.22;10519415;28;20032;-80
2021/12/12 05:56:05;;;;;;;18.17;11.27;;;;;;;3.78;92.40;101880.28;10518173;28;20060;-79
2021/12/12 06:01:08;;;;;;;19.52;12.10;;;;;;;3.82;92.43;101874.59;10472338;28;20074;-84
2021/12/12 06:06:18;;;;;;;23.45;11.10;;;;;;;3.81;92.31;101896.09;10489776;28;20032;-84
2021/12/12 06:11:23;;;;;;;25.77;12.93;;;;;;;3.87;92.69;101893.19;10517203;28;20040;-84
2021/12/12 06:16:23;;;;;;;20.63;11.43;;;;;;;3.93;92.88;101893.72;10483797;28;20120;-84
2021/12/12 06:21:24;;;;;;;23.63;12.98;;;;;;;3.93;92.90;101896.31;10483313;28;20028;-84
2021/12/12 06:26:24;;;;;;;19.40;11.02;;;;;;;3.98;92.64;101899.31;10499882;28;20028;-82
2021/12/12 06:31:25;;;;;;;34.78;13.80;;;;;;;3.98;92.62;101899.31;10465371;28;20444;-82
2021/12/12 06:36:25;;;;;;;17.60;10.50;;;;;;;4.01;92.79;101896.09;10501227;28;20031;-81
2021/12/12 06:41:26;;;;;;;31.85;13.07;;;;;;;4.13;92.84;101899.81;10482329;28;20067;-80
2021/12/12 06:46:26;;;;;;;20.02;10.93;;;;;;;4.13;92.90;101911.84;10523934;28;20127;-80
2021/12/12 06:51:27;;;;;;;18.67;13.30;;;;;;;4.11;92.40;101911.72;10523341;28;20071;-81
2021/12/12 06:56:28;;;;;;;19.83;10.02;;;;;;;4.17;92.38;101916.53;10506303;28;20035;-81
2021/12/12 07:01:32;;;;;;;16.45;9.95;;;;;;;4.14;92.81;101919.78;10523698;28;20024;-79
2021/12/12 07:06:33;;;;;;;17.35;9.32;;;;;;;4.26;92.83;101922.53;10517592;28;20020;-81
2021/12/12 07:11:35;;;;;;;14.43;9.10;;;;;;;4.23;93.07;101922.25;10541315;28;20373;-83
2021/12/12 07:16:36;;;;;;;19.45;10.27;;;;;;;4.24;92.30;101913.72;10506880;28;20073;-79
2021/12/12 07:21:36;;;;;;;20.85;12.57;;;;;;;4.28;92.96;101921.00;10506216;28;20024;-80
2021/12/12 07:26:37;;;;;;;16.50;8.43;;;;;;;4.30;92.16;101910.78;10506701;28;20115;-83
2021/12/12 07:31:38;;;;;;;18.42;9.93;;;;;;;4.34;92.66;101903.41;10452827;28;20028;-83
2021/12/12 07:36:45;;;;;;;12.32;8.15;;;;;;;4.46;92.99;101903.59;10488838;28;20035;-79
2021/12/12 07:41:46;;;;;;;11.35;8.20;;;;;;;4.43;91.87;101916.28;10510532;28;20385;-77
2021/12/12 07:46:47;;;;;;;11.93;8.13;;;;;;;4.59;92.60;101920.25;10471633;28;20033;-78
2021/12/12 07:51:48;;;;;;;11.70;7.57;;;;;;;4.59;92.31;101917.66;10505682;28;20023;-82
2021/12/12 07:56:48;;;;;;;14.00;7.20;;;;;;;4.74;91.93;101925.88;10521013;28;20561;-85
2021/12/12 08:01:50;;;;;;;8.90;6.95;;;;;;;4.82;91.53;101924.84;10484852;28;20036;-80
2021/12/12 08:06:51;;;;;;;9.50;6.20;;;;;;;4.85;91.71;101933.84;10501827;28;20151;-82
2021/12/12 08:11:51;;;;;;;11.70;6.20;;;;;;;4.91;91.70;101945.53;10475673;28;20070;-81
2021/12/12 08:16:52;;;;;;;11.70;5.72;;;;;;;4.91;90.76;101932.56;10504390;28;20043;-79
2021/12/12 08:21:54;;;;;;;9.70;6.57;;;;;;;4.92;91.22;101929.19;10484853;28;20385;-81
2021/12/12 08:26:55;;;;;;;8.57;5.63;;;;;;;5.00;90.98;101949.81;10520931;28;20039;-80
2021/12/12 08:31:55;;;;;;;8.32;6.22;;;;;;;5.04;91.08;101947.50;10503446;28;20051;-81
2021/12/12 08:36:56;;;;;;;13.48;6.28;;;;;;;5.06;90.95;101938.16;10481264;28;20038;-81
2021/12/12 08:41:58;;;;;;;12.80;7.40;;;;;;;5.11;90.56;101944.66;10495684;28;20535;-80
2021/12/12 08:46:59;;;;;;;8.48;6.93;;;;;;;5.29;90.88;101960.94;10503690;28;20040;-79
2021/12/12 08:52:23;;;;;;;14.27;7.25;;;;;;;5.36;90.38;101967.56;10517665;28;20031;-81
2021/12/12 08:57:34;;;;;;;9.32;4.90;;;;;;;5.44;90.03;101972.66;10499723;28;20032;-81
2021/12/12 09:02:34;;;;;;;9.88;7.38;;;;;;;5.49;89.47;101983.41;10501376;28;20498;-82
2021/12/12 09:07:44;;;;;;;9.75;6.72;;;;;;;5.59;89.58;101980.81;10506374;28;20038;-80
2021/12/12 09:12:55;;;;;;;8.38;5.47;;;;;;;5.61;89.49;101982.66;10492589;28;20044;-80
2021/12/12 09:17:59;;;;;;;8.38;6.47;;;;;;;5.67;89.73;101990.97;10486719;28;20047;-79
2021/12/12 09:23:02;;;;;;;11.48;7.07;;;;;;;5.64;89.96;101983.84;10485595;28;20114;-81
2021/12/12 09:28:38;;;;;;;13.48;6.97;;;;;;;5.72;89.91;102000.06;10512903;28;20028;-81
2021/12/12 09:33:56;;;;;;;10.55;5.65;;;;;;;5.78;89.72;101995.38;10518536;28;20063;-81
2021/12/12 09:39:24;;;;;;;10.57;5.90;;;;;;;5.76;89.60;102003.84;10502331;28;20051;-81
2021/12/12 09:44:48;;;;;;;14.82;9.13;;;;;;;5.81;90.61;102007.75;10518848;28;20123;-80
2021/12/12 09:55:48;;;;;;;19.15;7.65;;;;;;;5.81;90.81;102013.84;10536608;28;20028;-84
2021/12/12 10:00:58;;;;;;;17.08;8.52;;;;;;;5.80;90.13;102014.59;10496414;28;20066;-82
2021/12/12 10:06:09;;;;;;;11.05;7.18;;;;;;;5.82;90.26;102002.66;10502254;28;20074;-81
2021/12/12 10:11:29;;;;;;;13.93;8.15;;;;;;;5.91;90.80;102009.41;10495733;28;20035;-81
2021/12/12 10:16:42;;;;;;;14.52;7.35;;;;;;;5.98;90.89;102004.88;10526245;28;20032;-82
2021/12/12 10:22:01;;;;;;;12.35;7.97;;;;;;;5.98;91.22;102004.88;10525906;28;20036;-81
2021/12/12 10:27:11;;;;;;;14.40;6.03;;;;;;;6.05;90.55;102013.22;10526478;28;20032;-81
2021/12/12 10:32:14;;;;;;;11.85;6.97;;;;;;;6.12;90.32;102008.66;10511227;28;20103;-79
2021/12/12 10:37:18;;;;;;;10.85;6.50;;;;;;;6.11;90.49;102004.25;10508801;28;20504;-77
2021/12/12 10:42:22;;;;;;;12.02;6.88;;;;;;;6.12;90.30;102000.88;10524974;28;20036;-80
2021/12/12 10:47:30;;;;;;;12.48;6.72;;;;;;;6.10;90.31;102006.72;10509984;28;20028;-80
2021/12/12 10:52:38;;;;;;;10.75;6.95;;;;;;;6.18;90.26;102003.09;10472279;28;20531;-80
2021/12/12 10:57:39;;;;;;;8.63;6.03;;;;;;;6.21;90.02;102005.94;10484296;28;20473;-80
2021/12/12 11:03:05;;;;;;;8.23;6.70;;;;;;;6.28;90.44;102004.75;10470933;28;20039;-80
2021/12/12 11:08:47;;;;;;;7.95;5.05;;;;;;;6.29;90.22;102010.09;10511805;28;20059;-80
2021/12/12 11:13:57;;;;;;;15.07;6.80;;;;;;;6.31;90.67;102023.22;10520567;28;20119;-79
2021/12/12 11:19:06;;;;;;;13.90;6.75;;;;;;;6.43;90.17;102015.53;10462512;28;20024;-80
2021/12/12 11:24:23;;;;;;;8.30;6.05;;;;;;;6.47;89.96;102026.28;10506846;28;20028;-79
2021/12/12 11:29:28;;;;;;;17.42;6.50;;;;;;;6.47;89.30;102009.81;10507042;28;20020;-80
2021/12/12 11:34:29;;;;;;;8.25;6.30;;;;;;;6.50;89.27;102019.53;10491645;28;20119;-79
2021/12/12 11:39:40;;;;;;;12.35;6.50;;;;;;;6.63;89.63;102021.47;10522600;28;20023;-80
2021/12/12 11:44:52;;;;;;;18.98;14.48;;;;;;;6.64;88.97;102020.69;10465326;28;20047;-80
2021/12/12 11:50:22;;;;;;;10.38;5.38;;;;;;;6.74;88.99;102021.53;10483025;28;20060;-80
2021/12/12 11:55:56;;;;;;;8.57;4.78;;;;;;;6.77;88.79;102026.09;10467583;28;20072;-81
2021/12/12 12:01:04;;;;;;;10.90;6.40;;;;;;;6.78;88.84;102025.31;10419039;28;20056;-80
2021/12/12 12:06:26;;;;;;;12.23;7.20;;;;;;;6.84;89.21;102023.22;10496463;28;20115;-79
2021/12/12 12:11:33;;;;;;;7.95;5.43;;;;;;;6.95;89.18;102031.88;10482231;28;20017;-78
2021/12/12 12:16:58;;;;;;;10.18;6.00;;;;;;;6.98;88.48;102028.63;10497166;28;20032;-78
2021/12/12 12:22:08;;;;;;;11.63;7.03;;;;;;;6.79;89.23;102028.81;10496932;28;20047;-79
2021/12/12 12:27:17;;;;;;;9.63;6.68;;;;;;;6.67;89.01;102027.03;10495880;28;20029;-79
2021/12/12 12:32:55;;;;;;;11.88;7.30;;;;;;;6.60;89.73;102030.84;10481260;28;20032;-79
2021/12/12 12:38:34;;;;;;;13.18;7.97;;;;;;;6.59;89.82;102036.81;10486842;28;20036;-79
2021/12/12 12:44:25;;;;;;;11.93;7.80;;;;;;;6.63;89.94;102032.78;10508422;28;20046;-79
2021/12/12 12:50:07;;;;;;;9.75;7.20;;;;;;;6.65;90.57;102039.00;10531114;28;20515;-80
2021/12/12 12:55:29;;;;;;;13.13;7.37;;;;;;;6.59;90.80;102025.50;10501214;28;20525;-80
2021/12/12 13:00:30;;;;;;;13.63;7.50;;;;;;;6.63;90.87;102037.97;10519838;28;20024;-83
2021/12/12 13:06:07;;;;;;;15.20;7.93;;;;;;;6.73;91.15;102044.84;10518894;28;20032;-80
2021/12/12 13:11:08;;;;;;;14.23;7.20;;;;;;;6.84;90.86;102048.31;10520031;28;20056;-82
2021/12/12 13:16:15;;;;;;;10.65;7.63;;;;;;;6.90;90.86;102048.81;10520198;28;20491;-83
2021/12/12 13:21:41;;;;;;;12.70;6.82;;;;;;;6.94;90.68;102044.78;10472571;28;20126;-79
2021/12/12 13:26:54;;;;;;;8.13;6.03;;;;;;;6.87;90.83;102049.50;10521054;28;20032;-79
2021/12/12 13:32:09;;;;;;;7.82;5.40;;;;;;;6.86;90.86;102052.88;10486255;28;20040;-81
2021/12/12 13:37:27;;;;;;;8.65;6.25;;;;;;;6.89;91.06;102047.94;10486807;28;20371;-81
2021/12/12 13:43:00;;;;;;;9.07;6.90;;;;;;;6.84;91.76;102051.84;10484885;28;20044;-82
2021/12/12 13:48:10;;;;;;;11.55;7.35;;;;;;;6.88;91.78;102053.00;10519724;28;20044;-80
2021/12/12 13:53:40;;;;;;;10.00;7.43;;;;;;;6.92;91.50;102057.66;10517858;28;20632;-82
2021/12/12 13:59:00;;;;;;;9.95;7.88;;;;;;;6.96;91.70;102056.22;10504490;28;20063;-83
2021/12/12 14:04:09;;;;;;;10.60;7.35;;;;;;;6.94;91.67;102061.31;10520252;28;20032;-83
2021/12/12 14:09:12;;;;;;;12.05;8.75;;;;;;;6.88;92.19;102068.59;10467664;28;20028;-82
2021/12/12 14:14:53;;;;;;;12.00;8.02;;;;;;;6.92;91.92;102075.88;10482392;28;20054;-83
2021/12/12 14:20:09;;;;;;;14.65;9.40;;;;;;;6.95;92.28;102068.31;10530889;28;20032;-82
2021/12/12 14:25:10;;;;;;;9.82;7.80;;;;;;;6.90;92.32;102064.44;10486302;28;20480;-84
2021/12/12 14:30:14;;;;;;;15.10;7.93;;;;;;;6.93;92.64;102076.81;10506428;28;20036;-82
2021/12/12 14:35:20;;;;;;;9.70;6.82;;;;;;;6.94;92.37;102071.72;10500617;28;20032;-82
2021/12/12 14:40:30;;;;;;;12.25;8.48;;;;;;;6.89;92.53;102086.97;10497686;28;20464;-82
2021/12/12 14:45:51;;;;;;;13.23;9.13;;;;;;;6.90;92.84;102087.84;10481917;28;20086;-82
2021/12/12 14:50:54;;;;;;;14.02;9.23;;;;;;;6.93;92.77;102090.72;10516723;28;20032;-80
2021/12/12 14:56:05;;;;;;;13.40;8.73;;;;;;;6.88;92.41;102102.44;10487188;28;20040;-82
2021/12/12 15:01:17;;;;;;;14.30;9.43;;;;;;;6.92;92.53;102096.69;10541115;28;20024;-84
2021/12/12 15:06:19;;;;;;;13.57;8.68;;;;;;;6.95;92.34;102109.06;10523289;28;20024;-83
2021/12/12 15:11:26;;;;;;;11.95;9.35;;;;;;;6.95;92.84;102111.69;10522328;28;20020;-82
2021/12/12 15:16:29;;;;;;;11.18;8.23;;;;;;;6.91;92.83;102120.91;10541009;28;20119;-83
2021/12/12 15:21:32;;;;;;;16.85;10.95;;;;;;;6.90;92.75;102129.50;10491406;28;20500;-83
2021/12/12 15:26:36;;;;;;;15.13;11.90;;;;;;;6.88;92.81;102126.78;10505746;28;20024;-84
2021/12/12 15:31:37;;;;;;;16.70;11.05;;;;;;;6.87;92.78;102129.25;10522308;28;20046;-82
2021/12/12 15:36:40;;;;;;;15.18;11.05;;;;;;;6.87;93.39;102131.84;10542109;28;20483;-81
2021/12/12 15:41:42;;;;;;;15.07;10.93;;;;;;;6.93;93.51;102140.16;10486662;28;20052;-84
2021/12/12 15:46:44;;;;;;;15.32;10.45;;;;;;;6.94;93.03;102149.78;10500831;28;20361;-84
2021/12/12 15:51:44;;;;;;;;;;;;;;;6.94;93.18;102151.50;10512830;28;20064;-83
2021/12/12 15:56:49;;;;;;;19.20;13.90;;;;;;;6.95;93.54;102154.22;10521475;28;20018;-84
2021/12/12 16:02:03;;;;;;;16.30;12.82;;;;;;;6.99;92.96;102153.69;10530056;28;20039;-81
2021/12/12 16:07:12;;;;;;;19.50;13.90;;;;;;;7.00;93.78;102162.44;10516464;28;20031;-80
2021/12/12 16:12:18;;;;;;;31.95;23.95;;;;;;;7.02;93.04;102158.25;10504459;28;20476;-81
2021/12/12 16:17:32;;;;;;;21.35;14.52;;;;;;;7.04;93.50;102154.97;10523273;28;20042;-83
2021/12/12 16:22:34;;;;;;;19.75;14.73;;;;;;;7.05;93.21;102168.94;10521735;28;20024;-82
2021/12/12 16:27:34;;;;;;;22.30;15.40;;;;;;;7.12;93.28;102170.31;10504198;28;20032;-82
2021/12/12 16:32:40;;;;;;;20.80;14.60;;;;;;;7.11;93.79;102171.09;10521029;28;20471;-81
2021/12/12 16:37:46;;;;;;;18.88;14.60;;;;;;;7.12;93.60;102176.47;10522921;28;20169;-82
2021/12/12 16:42:50;;;;;;;22.05;16.23;;;;;;;7.15;93.69;102178.38;10502175;28;20036;-81
2021/12/12 16:47:52;;;;;;;19.45;14.05;;;;;;;7.17;93.52;102179.44;10487966;28;20383;-81
2021/12/12 16:52:52;;;;;;;19.27;14.88;;;;;;;7.19;93.60;102186.59;10498623;28;20044;-82
2021/12/12 16:58:05;;;;;;;18.80;13.27;;;;;;;7.18;93.43;102189.97;10487608;28;20031;-84
2021/12/12 17:03:10;;;;;;;20.70;15.10;;;;;;;7.22;93.09;102196.34;10503697;28;20027;-79
2021/12/12 17:08:29;;;;;;;21.35;15.40;;;;;;;7.30;93.28;102191.78;10502894;28;20051;-79
2021/12/12 17:13:30;;;;;;;19.50;15.10;;;;;;;7.32;93.47;102195.41;10474528;28;20031;-84
2021/12/12 17:18:33;;;;;;;23.77;17.10;;;;;;;7.38;93.54;102201.13;10502127;28;20104;-83
2021/12/12 17:23:35;;;;;;;;;;;;;;;7.38;93.50;102205.41;10502332;28;20028;-84
2021/12/12 17:28:36;;;;;;;28.08;19.85;;;;;;;7.44;93.59;102205.91;10519491;28;19915;-88
2021/12/12 17:33:50;;;;;;;31.65;20.83;;;;;;;7.45;93.57;102210.34;10503053;28;20020;-89
2021/12/12 17:39:12;;;;;;;40.20;22.85;;;;;;;7.48;93.44;102210.59;10503209;28;20040;-87
2021/12/12 17:44:22;;;;;;;41.17;25.33;;;;;;;7.55;93.92;102205.09;10487194;28;20036;-79
2021/12/12 17:49:36;;;;;;;43.35;25.77;;;;;;;7.60;93.96;102206.38;10537651;28;20036;-84
2021/12/12 17:54:36;;;;;;;53.60;28.63;;;;;;;7.61;93.89;102208.19;10519014;28;20507;-82
2021/12/12 17:59:48;;;;;;;52.85;30.80;;;;;;;7.71;93.72;102204.66;10536170;28;20032;-83
2021/12/12 18:04:49;;;;;;;52.40;29.10;;;;;;;7.75;93.89;102211.00;10519174;28;20058;-81
2021/12/12 18:10:14;;;;;;;54.05;31.67;;;;;;;7.76;93.36;102220.66;10517665;28;20492;-83
2021/12/12 18:15:18;;;;;;;51.33;30.58;;;;;;;7.81;93.57;102219.31;10497835;28;20040;-83
2021/12/12 18:20:46;;;;;;;52.50;29.90;;;;;;;7.80;93.43;102225.31;10496265;28;20442;-82
2021/12/12 18:25:56;;;;;;;53.20;31.10;;;;;;;7.83;93.13;102228.19;10527483;28;20480;-77
2021/12/12 18:31:01;;;;;;;52.58;29.55;;;;;;;7.84;93.47;102219.56;10504056;28;20028;-77
2021/12/12 18:36:18;;;;;;;55.28;31.13;;;;;;;7.85;93.56;102224.00;10522028;28;20038;-77
2021/12/12 18:41:22;;;;;;;54.58;31.92;;;;;;;7.82;93.34;102223.75;10540693;28;20445;-81
2021/12/12 18:46:25;;;;;;;54.67;31.92;;;;;;;7.89;93.57;102235.59;10509305;28;20040;-82
2021/12/12 18:51:28;;;;;;;63.80;31.85;;;;;;;7.85;93.24;102231.81;10508208;28;20036;-82
2021/12/12 18:56:35;;;;;;;52.35;30.70;;;;;;;7.90;93.28;102238.31;10483796;28;20086;-84
2021/12/12 19:01:44;;;;;;;46.28;28.73;;;;;;;7.89;93.02;102246.03;10521241;28;20089;-85
2021/12/12 19:06:46;;;;;;;59.38;31.33;;;;;;;7.95;93.36;102262.16;10525993;28;20032;-80
2021/12/12 19:11:47;;;;;;;47.97;28.07;;;;;;;7.96;92.85;102260.44;10524216;28;20121;-85
2021/12/12 19:16:50;;;;;;;56.63;31.48;;;;;;;7.91;92.72;102263.59;10541833;28;20597;-82
2021/12/12 19:21:54;;;;;;;55.70;28.40;;;;;;;8.04;92.65;102272.41;10496041;28;20036;-82
2021/12/12 19:27:04;;;;;;;56.45;28.30;;;;;;;7.98;92.93;102275.44;10491167;28;20032;-80
2021/12/12 19:32:07;;;;;;;52.83;27.83;;;;;;;8.02;92.68;102279.19;10491880;28;20078;-82
2021/12/12 19:37:09;;;;;;;55.28;29.65;;;;;;;8.02;92.27;102294.84;10507146;28;20077;-78
2021/12/12 19:42:12;;;;;;;46.63;26.70;;;;;;;8.04;92.73;102288.06;10524266;28;20050;-79
2021/12/12 19:47:21;;;;;;;45.28;27.52;;;;;;;7.99;92.14;102289.38;10506508;28;20028;-82
2021/12/12 19:52:28;;;;;;;46.20;26.30;;;;;;;7.95;92.24;102293.44;10541755;28;20090;-82
2021/12/12 19:57:29;;;;;;;38.78;24.20;;;;;;;7.94;92.24;102296.84;10539874;28;20072;-83
2021/12/12 20:02:29;;;;;;;43.25;25.00;;;;;;;8.00;92.23;102307.78;10522231;28;20028;-80
2021/12/12 20:07:30;;;;;;;41.92;23.88;;;;;;;7.94;92.17;102300.34;10521826;28;20117;-78
2021/12/12 20:12:31;;;;;;;42.15;25.02;;;;;;;7.97;92.00;102298.78;10521442;28;20042;-77
2021/12/12 20:17:37;;;;;;;36.58;25.17;;;;;;;7.94;92.01;102307.28;10521251;28;20514;-82
2021/12/12 20:22:45;;;;;;;41.00;25.92;;;;;;;8.01;92.12;102309.59;10541172;28;20024;-80
2021/12/12 20:28:08;;;;;;;43.40;24.98;;;;;;;7.97;92.08;102312.75;10486744;28;20071;-79
2021/12/12 20:33:33;;;;;;;38.70;21.73;;;;;;;7.98;92.36;102308.41;10504252;28;20028;-78
2021/12/12 20:38:40;;;;;;;80.07;44.38;;;;;;;7.98;92.01;102308.41;10504788;28;20089;-80
2021/12/12 20:43:43;;;;;;;45.47;22.42;;;;;;;7.93;92.12;102318.50;10504296;28;20055;-79
2021/12/12 20:48:47;;;;;;;35.83;20.85;;;;;;;7.92;91.92;102322.78;10538409;28;20035;-84
2021/12/12 20:54:11;;;;;;;32.17;20.95;;;;;;;7.90;92.07;102323.44;10487719;28;20097;-82
2021/12/12 20:59:17;;;;;;;31.95;21.63;;;;;;;7.87;91.95;102325.81;10495872;28;20146;-84
2021/12/12 21:04:20;;;;;;;37.28;23.05;;;;;;;7.85;92.16;102329.97;10502410;28;20054;-84
2021/12/12 21:09:22;;;;;;;32.88;21.80;;;;;;;7.86;92.21;102327.47;10486029;28;20032;-84
2021/12/12 21:14:28;;;;;;;30.75;19.52;;;;;;;7.87;92.03;102325.81;10503085;28;20028;-84
2021/12/12 21:19:29;;;;;;;34.47;22.20;;;;;;;7.88;91.75;102333.72;10503475;28;20032;-85
2021/12/12 21:24:36;;;;;;;32.47;21.75;;;;;;;7.83;91.91;102328.94;10518690;28;20117;-84
2021/12/12 21:29:36;;;;;;;30.92;20.98;;;;;;;7.87;91.92;102329.31;10519038;28;20074;-85
2021/12/12 21:34:40;;;;;;;31.42;20.35;;;;;;;7.76;92.04;102328.44;10517678;28;20055;-84
2021/12/12 21:39:45;;;;;;;43.80;21.98;;;;;;;7.76;91.89;102332.72;10483701;28;20430;-81
2021/12/12 21:45:02;;;;;;;34.97;22.65;;;;;;;7.80;91.91;102329.59;10518690;28;20059;-81
2021/12/12 21:50:31;;;;;;;32.47;22.80;;;;;;;7.81;92.11;102330.53;10486478;28;20456;-82
2021/12/12 21:55:38;;;;;;;32.70;20.70;;;;;;;7.76;92.23;102337.94;10503048;28;20039;-82
2021/12/12 22:00:49;;;;;;;34.22;22.42;;;;;;;7.75;92.19;102338.72;10535378;28;20087;-80
2021/12/12 22:05:50;;;;;;;34.72;23.55;;;;;;;7.73;92.43;102336.00;10503726;28;20476;-79
2021/12/12 22:10:56;;;;;;;38.08;22.00;;;;;;;7.74;92.18;102337.81;10525666;28;20032;-78
2021/12/12 22:16:00;;;;;;;31.63;20.83;;;;;;;7.70;92.26;102351.38;10509555;28;20036;-84
2021/12/12 22:21:05;;;;;;;35.60;22.42;;;;;;;7.69;92.54;102346.03;10506186;28;20031;-82
2021/12/12 22:26:06;;;;;;;33.53;20.17;;;;;;;7.70;92.35;102350.47;10475952;28;20599;-80
2021/12/12 22:31:07;;;;;;;35.28;21.30;;;;;;;7.68;92.41;102358.16;10508706;28;20028;-81
2021/12/12 22:36:10;;;;;;;36.17;21.80;;;;;;;7.63;92.31;102362.09;10510575;28;20065;-81
2021/12/12 22:41:15;;;;;;;27.77;20.38;;;;;;;7.58;92.41;102361.69;10482295;28;20031;-82
2021/12/12 22:46:16;;;;;;;32.10;19.92;;;;;;;7.56;92.75;102367.56;10488730;28;20036;-81
2021/12/12 22:51:27;;;;;;;28.75;19.75;;;;;;;7.57;93.08;102375.50;10508126;28;20024;-82
2021/12/12 22:56:30;;;;;;;30.58;21.23;;;;;;;7.52;92.68;102383.72;10525737;28;20042;-82
2021/12/12 23:01:34;;;;;;;28.92;19.25;;;;;;;7.52;93.06;102370.69;10492348;28;20196;-82
2021/12/12 23:06:44;;;;;;;30.92;20.55;;;;;;;7.51;92.80;102384.50;10524275;28;20073;-81
2021/12/12 23:11:45;;;;;;;29.45;19.48;;;;;;;7.49;92.77;102381.75;10509000;28;20028;-81
2021/12/12 23:16:46;;;;;;;34.90;19.02;;;;;;;7.51;92.67;102380.19;10523376;28;20024;-82
2021/12/12 23:22:01;;;;;;;28.08;19.73;;;;;;;7.45;92.70;102384.88;10524388;28;20044;-81
2021/12/12 23:27:08;;;;;;;26.48;17.95;;;;;;;7.41;92.53;102382.78;10524663;28;20024;-82
2021/12/12 23:32:17;;;;;;;25.23;17.05;;;;;;;7.47;92.52;102379.03;10508327;28;20111;-82
2021/12/12 23:37:27;;;;;;;26.90;18.40;;;;;;;7.38;92.36;102386.06;10506974;28;20032;-82
2021/12/12 23:42:40;;;;;;;26.25;17.92;;;;;;;7.33;92.84;102377.84;10497819;28;20450;-82
2021/12/12 23:47:41;;;;;;;28.27;17.60;;;;;;;7.22;92.14;102370.81;10525090;28;20044;-82
2021/12/12 23:52:45;;;;;;;21.43;14.60;;;;;;;7.11;92.42;102379.41;10505708;28;20123;-81